Time,TemperatureF,DewpointF,PressureIn,WindDirection,WindDirectionDegrees,WindSpeedMPH,WindSpeedGustMPH,Humidity,HourlyPrecipIn,Conditions,Clouds,dailyrainin,SoftwareType,DateUTC
2013-01-18 00:03:00,29.0,17.0,30.23,NE,34,3.0,8.0,60,-99.99,,,-99.99,,2013-01-18 05:03:00,
2013-01-18 00:12:00,29.0,17.0,30.23,NE,34,3.0,8.0,60,-99.99,,,-99.99,,2013-01-18 05:12:00,
2013-01-18 00:22:00,29.0,17.0,30.22,NE,39,3.0,8.0,60,-99.99,,,-99.99,,2013-01-18 05:22:00,
2013-01-18 00:33:00,28.0,16.0,30.23,NE,39,2.0,8.0,59,-99.99,,,-99.99,,2013-01-18 05:33:00,
2013-01-18 00:42:00,28.0,16.0,30.23,NE,39,2.0,8.0,59,-99.99,,,-99.99,,2013-01-18 05:42:00,
2013-01-18 00:53:00,28.0,17.0,30.21,ENE,77,3.0,10.0,62,-99.99,,,-99.99,,2013-01-18 05:53:00,
2013-01-18 01:02:00,28.0,16.0,30.21,ENE,73,3.0,7.0,61,-99.99,,,-99.99,,2013-01-18 06:02:00,
2013-01-18 01:12:00,28.0,16.0,30.21,ENE,73,3.0,7.0,61,-99.99,,,-99.99,,2013-01-18 06:12:00,
2013-01-18 01:22:00,28.0,16.0,30.21,NNE,33,3.0,7.0,61,-99.99,,,-99.99,,2013-01-18 06:22:00,
2013-01-18 01:33:00,27.0,16.0,30.22,ENE,68,2.0,7.0,63,-99.99,,,-99.99,,2013-01-18 06:33:00,
2013-01-18 01:43:00,27.0,16.0,30.22,ENE,68,2.0,7.0,63,-99.99,,,-99.99,,2013-01-18 06:43:00,
2013-01-18 01:53:00,27.0,16.0,30.22,NNE,18,2.0,7.0,63,-99.99,,,-99.99,,2013-01-18 06:53:00,
2013-01-18 02:02:00,27.0,16.0,30.22,NE,46,2.0,9.0,63,-99.99,,,-99.99,,2013-01-18 07:02:00,
2013-01-18 02:12:00,27.0,16.0,30.22,NE,46,2.0,9.0,63,-99.99,,,-99.99,,2013-01-18 07:12:00,
2013-01-18 02:22:00,27.0,15.0,30.24,NNE,20,4.0,9.0,59,-99.99,,,-99.99,,2013-01-18 07:22:00,
2013-01-18 02:32:00,27.0,14.0,30.25,NE,39,3.0,8.0,58,-99.99,,,-99.99,,2013-01-18 07:32:00,
2013-01-18 02:42:00,27.0,14.0,30.25,NE,39,3.0,8.0,58,-99.99,,,-99.99,,2013-01-18 07:42:00,
2013-01-18 02:52:00,27.0,13.0,30.24,North,1,5.0,10.0,56,-99.99,,,-99.99,,2013-01-18 07:52:00,
2013-01-18 03:02:00,26.0,14.0,30.23,ENE,62,5.0,14.0,59,-99.99,,,-99.99,,2013-01-18 08:02:00,
2013-01-18 03:12:00,26.0,14.0,30.23,ENE,62,5.0,14.0,59,-99.99,,,-99.99,,2013-01-18 08:12:00,
2013-01-18 03:22:00,26.0,13.0,30.23,ENE,64,3.0,7.0,58,-99.99,,,-99.99,,2013-01-18 08:22:00,
2013-01-18 03:32:00,26.0,12.0,30.24,NNE,22,3.0,7.0,55,-99.99,,,-99.99,,2013-01-18 08:32:00,
2013-01-18 03:42:00,26.0,12.0,30.24,NNE,22,3.0,7.0,55,-99.99,,,-99.99,,2013-01-18 08:42:00,
2013-01-18 03:53:00,26.0,12.0,30.25,NE,36,1.0,4.0,54,-99.99,,,-99.99,,2013-01-18 08:53:00,
2013-01-18 04:03:00,26.0,12.0,30.25,ENE,68,2.0,5.0,54,-99.99,,,-99.99,,2013-01-18 09:03:00,
2013-01-18 04:12:00,26.0,12.0,30.25,ENE,68,2.0,5.0,54,-99.99,,,-99.99,,2013-01-18 09:12:00,
2013-01-18 04:22:00,26.0,11.0,30.25,North,356,3.0,7.0,53,-99.99,,,-99.99,,2013-01-18 09:22:00,
2013-01-18 04:33:00,26.0,12.0,30.27,East,101,2.0,6.0,55,-99.99,,,-99.99,,2013-01-18 09:33:00,
2013-01-18 04:42:00,26.0,12.0,30.27,East,101,2.0,6.0,55,-99.99,,,-99.99,,2013-01-18 09:42:00,
2013-01-18 04:53:00,26.0,12.0,30.27,NNW,347,2.0,5.0,55,-99.99,,,-99.99,,2013-01-18 09:53:00,
2013-01-18 05:03:00,25.0,11.0,30.27,North,6,2.0,6.0,55,-99.99,,,-99.99,,2013-01-18 10:03:00,
2013-01-18 05:12:00,25.0,11.0,30.27,North,6,2.0,6.0,55,-99.99,,,-99.99,,2013-01-18 10:12:00,
2013-01-18 05:22:00,25.0,12.0,30.29,NNE,18,3.0,7.0,58,-99.99,,,-99.99,,2013-01-18 10:22:00,
2013-01-18 05:32:00,25.0,13.0,30.30,NW,318,3.0,6.0,61,-99.99,,,-99.99,,2013-01-18 10:32:00,
2013-01-18 05:43:00,25.0,13.0,30.30,NW,318,3.0,6.0,61,-99.99,,,-99.99,,2013-01-18 10:43:00,
2013-01-18 05:53:00,25.0,13.0,30.32,NNE,26,3.0,8.0,60,-99.99,,,-99.99,,2013-01-18 10:53:00,
2013-01-18 06:02:00,24.0,12.0,30.34,NNW,334,3.0,7.0,60,-99.99,,,-99.99,,2013-01-18 11:02:00,
2013-01-18 06:12:00,24.0,12.0,30.34,NNW,334,3.0,7.0,60,-99.99,,,-99.99,,2013-01-18 11:12:00,
2013-01-18 06:23:00,24.0,12.0,30.35,NNW,347,2.0,6.0,60,-99.99,,,-99.99,,2013-01-18 11:23:00,
2013-01-18 06:32:00,23.0,11.0,30.36,NNE,30,2.0,7.0,60,-99.99,,,-99.99,,2013-01-18 11:32:00,
2013-01-18 06:42:00,23.0,11.0,30.36,NNE,30,2.0,7.0,60,-99.99,,,-99.99,,2013-01-18 11:42:00,
2013-01-18 06:53:00,23.0,12.0,30.37,North,359,3.0,9.0,61,-99.99,,,-99.99,,2013-01-18 11:53:00,
2013-01-18 07:03:00,22.0,11.0,30.39,NW,318,3.0,6.0,61,-99.99,,,-99.99,,2013-01-18 12:03:00,
2013-01-18 07:12:00,22.0,11.0,30.39,NW,318,3.0,6.0,61,-99.99,,,-99.99,,2013-01-18 12:12:00,
2013-01-18 07:23:00,22.0,11.0,30.41,North,354,2.0,5.0,61,-99.99,,,-99.99,,2013-01-18 12:23:00,
2013-01-18 07:33:00,22.0,11.0,30.42,NE,43,3.0,7.0,61,-99.99,,,-99.99,,2013-01-18 12:33:00,
2013-01-18 07:43:00,22.0,11.0,30.42,NE,43,3.0,7.0,61,-99.99,,,-99.99,,2013-01-18 12:43:00,
2013-01-18 07:53:00,21.0,10.0,30.44,NNE,23,2.0,5.0,61,-99.99,,,-99.99,,2013-01-18 12:53:00,
2013-01-18 08:03:00,21.0,8.0,30.45,NNE,22,2.0,6.0,56,-99.99,,,-99.99,,2013-01-18 13:03:00,
2013-01-18 08:12:00,21.0,8.0,30.45,NNE,22,2.0,6.0,56,-99.99,,,-99.99,,2013-01-18 13:12:00,
2013-01-18 08:23:00,20.0,6.0,30.46,North,0,3.0,7.0,53,-99.99,,,-99.99,,2013-01-18 13:23:00,
2013-01-18 08:33:00,20.0,4.0,30.48,NNE,23,3.0,8.0,50,-99.99,,,-99.99,,2013-01-18 13:33:00,
2013-01-18 08:43:00,20.0,4.0,30.48,NNE,23,3.0,8.0,50,-99.99,,,-99.99,,2013-01-18 13:43:00,
2013-01-18 08:53:00,21.0,6.0,30.50,East,79,4.0,8.0,51,-99.99,,,-99.99,,2013-01-18 13:53:00,
2013-01-18 09:03:00,20.0,4.0,30.51,NW,319,4.0,10.0,50,-99.99,,,-99.99,,2013-01-18 14:03:00,
2013-01-18 09:12:00,20.0,4.0,30.51,NW,319,4.0,10.0,50,-99.99,,,-99.99,,2013-01-18 14:12:00,
2013-01-18 09:23:00,21.0,4.0,30.51,NW,322,4.0,9.0,47,-99.99,,,-99.99,,2013-01-18 14:23:00,
2013-01-18 09:33:00,21.0,3.0,30.52,NE,53,6.0,11.0,45,-99.99,,,-99.99,,2013-01-18 14:33:00,
2013-01-18 09:43:00,21.0,3.0,30.52,NE,53,6.0,11.0,45,-99.99,,,-99.99,,2013-01-18 14:43:00,
2013-01-18 09:53:00,20.0,2.0,30.53,ENE,78,6.0,11.0,44,-99.99,,,-99.99,,2013-01-18 14:53:00,
2013-01-18 10:03:00,20.0,1.0,30.54,NNE,20,6.0,11.0,43,-99.99,,,-99.99,,2013-01-18 15:03:00,
2013-01-18 10:13:00,20.0,1.0,30.54,NNE,20,6.0,11.0,43,-99.99,,,-99.99,,2013-01-18 15:13:00,
2013-01-18 10:23:00,21.0,3.0,30.55,NE,55,4.0,8.0,45,-99.99,,,-99.99,,2013-01-18 15:23:00,
2013-01-18 10:34:00,21.0,3.0,30.55,NW,326,4.0,9.0,45,-99.99,,,-99.99,,2013-01-18 15:34:00,
2013-01-18 10:43:00,21.0,3.0,30.55,NW,326,4.0,9.0,45,-99.99,,,-99.99,,2013-01-18 15:43:00,
2013-01-18 10:54:00,22.0,3.0,30.57,NNE,33,4.0,10.0,44,-99.99,,,-99.99,,2013-01-18 15:54:00,
2013-01-18 11:03:00,21.0,2.0,30.56,ENE,61,6.0,12.0,43,-99.99,,,-99.99,,2013-01-18 16:03:00,
2013-01-18 11:13:00,21.0,2.0,30.56,ENE,61,6.0,12.0,43,-99.99,,,-99.99,,2013-01-18 16:13:00,
2013-01-18 11:23:00,22.0,3.0,30.56,NNE,30,5.0,10.0,43,-99.99,,,-99.99,,2013-01-18 16:23:00,
2013-01-18 11:33:00,22.0,2.0,30.56,North,350,4.0,10.0,42,-99.99,,,-99.99,,2013-01-18 16:33:00,
2013-01-18 11:43:00,22.0,2.0,30.56,North,350,4.0,10.0,42,-99.99,,,-99.99,,2013-01-18 16:43:00,
2013-01-18 11:53:00,22.0,2.0,30.56,WNW,302,4.0,10.0,42,-99.99,,,-99.99,,2013-01-18 16:53:00,
2013-01-18 12:03:00,23.0,4.0,30.56,WNW,293,4.0,10.0,43,-99.99,,,-99.99,,2013-01-18 17:03:00,
2013-01-18 12:13:00,23.0,4.0,30.56,WNW,293,4.0,10.0,43,-99.99,,,-99.99,,2013-01-18 17:13:00,
2013-01-18 12:23:00,22.0,1.0,30.56,NW,319,5.0,12.0,40,-99.99,,,-99.99,,2013-01-18 17:23:00,
2013-01-18 12:33:00,23.0,3.0,30.57,NNE,26,4.0,8.0,41,-99.99,,,-99.99,,2013-01-18 17:33:00,
2013-01-18 12:43:00,23.0,3.0,30.57,NNE,26,4.0,8.0,41,-99.99,,,-99.99,,2013-01-18 17:43:00,
2013-01-18 12:53:00,23.0,2.0,30.56,NW,315,4.0,10.0,40,-99.99,,,-99.99,,2013-01-18 17:53:00,
2013-01-18 13:03:00,23.0,2.0,30.56,NW,315,4.0,10.0,40,-99.99,,,-99.99,,2013-01-18 18:03:00,
2013-01-18 13:13:00,23.0,2.0,30.56,NW,315,4.0,10.0,40,-99.99,,,-99.99,,2013-01-18 18:13:00,
2013-01-18 13:23:00,23.0,1.0,30.57,NW,321,4.0,8.0,38,-99.99,,,-99.99,,2013-01-18 18:23:00,
2013-01-18 13:33:00,24.0,2.0,30.58,North,352,4.0,9.0,38,-99.99,,,-99.99,,2013-01-18 18:33:00,
2013-01-18 13:43:00,24.0,2.0,30.58,North,352,4.0,9.0,38,-99.99,,,-99.99,,2013-01-18 18:43:00,
2013-01-18 13:53:00,24.0,2.0,30.58,NE,55,4.0,9.0,37,-99.99,,,-99.99,,2013-01-18 18:53:00,
2013-01-18 14:03:00,24.0,2.0,30.58,NNE,29,3.0,7.0,37,-99.99,,,-99.99,,2013-01-18 19:03:00,
2013-01-18 14:13:00,24.0,2.0,30.58,NNE,29,3.0,7.0,37,-99.99,,,-99.99,,2013-01-18 19:13:00,
2013-01-18 14:23:00,24.0,1.0,30.58,North,353,5.0,10.0,36,-99.99,,,-99.99,,2013-01-18 19:23:00,
2013-01-18 14:33:00,25.0,2.0,30.59,NW,319,4.0,9.0,36,-99.99,,,-99.99,,2013-01-18 19:33:00,
2013-01-18 14:43:00,25.0,2.0,30.59,NW,319,4.0,9.0,36,-99.99,,,-99.99,,2013-01-18 19:43:00,
2013-01-18 14:53:00,25.0,2.0,30.59,NE,34,4.0,9.0,36,-99.99,,,-99.99,,2013-01-18 19:53:00,
2013-01-18 15:03:00,25.0,2.0,30.60,WNW,286,3.0,8.0,37,-99.99,,,-99.99,,2013-01-18 20:03:00,
2013-01-18 15:13:00,25.0,2.0,30.60,WNW,286,3.0,8.0,37,-99.99,,,-99.99,,2013-01-18 20:13:00,
2013-01-18 15:23:00,25.0,2.0,30.60,WNW,302,2.0,6.0,37,-99.99,,,-99.99,,2013-01-18 20:23:00,
2013-01-18 15:33:00,25.0,2.0,30.60,NW,322,3.0,6.0,37,-99.99,,,-99.99,,2013-01-18 20:33:00,
2013-01-18 15:43:00,25.0,2.0,30.60,NW,322,3.0,6.0,37,-99.99,,,-99.99,,2013-01-18 20:43:00,
2013-01-18 15:53:00,24.0,1.0,30.61,WNW,288,3.0,5.0,36,-99.99,,,-99.99,,2013-01-18 20:53:00,
2013-01-18 16:03:00,24.0,2.0,30.60,WNW,293,2.0,5.0,37,-99.99,,,-99.99,,2013-01-18 21:03:00,
2013-01-18 16:13:00,24.0,2.0,30.60,WNW,293,2.0,5.0,37,-99.99,,,-99.99,,2013-01-18 21:13:00,
2013-01-18 16:23:00,25.0,2.0,30.60,WNW,290,1.0,3.0,37,-99.99,,,-99.99,,2013-01-18 21:23:00,
2013-01-18 16:33:00,24.0,3.0,30.61,NW,311,2.0,4.0,39,-99.99,,,-99.99,,2013-01-18 21:33:00,
2013-01-18 16:43:00,24.0,3.0,30.61,NW,311,2.0,4.0,39,-99.99,,,-99.99,,2013-01-18 21:43:00,
2013-01-18 16:53:00,24.0,3.0,30.61,NW,307,1.0,4.0,39,-99.99,,,-99.99,,2013-01-18 21:53:00,
2013-01-18 17:03:00,23.0,2.0,30.62,NW,316,1.0,2.0,40,-99.99,,,-99.99,,2013-01-18 22:03:00,
2013-01-18 17:12:00,23.0,2.0,30.62,NW,316,1.0,2.0,40,-99.99,,,-99.99,,2013-01-18 22:12:00,
2013-01-18 17:23:00,23.0,3.0,30.62,WNW,290,0.0,1.0,41,-99.99,,,-99.99,,2013-01-18 22:23:00,
2013-01-18 17:33:00,22.0,4.0,30.62,WNW,290,0.0,1.0,46,-99.99,,,-99.99,,2013-01-18 22:33:00,
2013-01-18 17:43:00,22.0,4.0,30.62,WNW,290,0.0,1.0,46,-99.99,,,-99.99,,2013-01-18 22:43:00,
2013-01-18 17:53:00,21.0,4.0,30.62,WNW,290,0.0,0.0,48,-99.99,,,-99.99,,2013-01-18 22:53:00,
2013-01-18 18:03:00,20.0,3.0,30.63,WNW,290,0.0,0.0,47,-99.99,,,-99.99,,2013-01-18 23:03:00,
2013-01-18 18:12:00,20.0,3.0,30.63,WNW,290,0.0,0.0,47,-99.99,,,-99.99,,2013-01-18 23:12:00,
2013-01-18 18:23:00,20.0,6.0,30.64,WNW,290,0.0,0.0,53,-99.99,,,-99.99,,2013-01-18 23:23:00,
2013-01-18 18:33:00,19.0,3.0,30.65,WNW,290,0.0,0.0,49,-99.99,,,-99.99,,2013-01-18 23:33:00,
2013-01-18 18:43:00,19.0,3.0,30.65,WNW,290,0.0,0.0,49,-99.99,,,-99.99,,2013-01-18 23:43:00,
2013-01-18 18:53:00,19.0,3.0,30.66,WNW,290,0.0,0.0,49,-99.99,,,-99.99,,2013-01-18 23:53:00,
2013-01-18 19:02:00,19.0,3.0,30.67,WNW,290,0.0,1.0,50,-99.99,,,-99.99,,2013-01-19 00:02:00,
2013-01-18 19:12:00,19.0,3.0,30.67,WNW,290,0.0,1.0,50,-99.99,,,-99.99,,2013-01-19 00:12:00,
2013-01-18 19:23:00,20.0,5.0,30.67,WNW,290,0.0,0.0,51,-99.99,,,-99.99,,2013-01-19 00:23:00,
2013-01-18 19:33:00,20.0,5.0,30.66,WNW,290,0.0,1.0,51,-99.99,,,-99.99,,2013-01-19 00:33:00,
2013-01-18 19:43:00,20.0,5.0,30.66,WNW,290,0.0,1.0,51,-99.99,,,-99.99,,2013-01-19 00:43:00,
2013-01-18 19:53:00,20.0,5.0,30.66,WNW,290,0.0,0.0,51,-99.99,,,-99.99,,2013-01-19 00:53:00,
2013-01-18 20:02:00,20.0,6.0,30.66,WNW,290,0.0,0.0,53,-99.99,,,-99.99,,2013-01-19 01:02:00,
2013-01-18 20:12:00,20.0,6.0,30.66,WNW,290,0.0,0.0,53,-99.99,,,-99.99,,2013-01-19 01:12:00,
2013-01-18 20:23:00,20.0,6.0,30.66,WNW,290,0.0,1.0,55,-99.99,,,-99.99,,2013-01-19 01:23:00,
2013-01-18 20:33:00,20.0,7.0,30.66,WNW,290,0.0,0.0,56,-99.99,,,-99.99,,2013-01-19 01:33:00,
2013-01-18 20:43:00,20.0,7.0,30.66,WNW,290,0.0,0.0,56,-99.99,,,-99.99,,2013-01-19 01:43:00,
2013-01-18 20:53:00,19.0,6.0,30.65,South,188,0.0,1.0,56,-99.99,,,-99.99,,2013-01-19 01:53:00,
2013-01-18 21:03:00,19.0,7.0,30.65,South,188,0.0,0.0,58,-99.99,,,-99.99,,2013-01-19 02:03:00,
2013-01-18 21:12:00,19.0,7.0,30.65,South,188,0.0,0.0,58,-99.99,,,-99.99,,2013-01-19 02:12:00,
2013-01-18 21:23:00,19.0,7.0,30.65,South,188,0.0,0.0,59,-99.99,,,-99.99,,2013-01-19 02:23:00,
2013-01-18 21:33:00,19.0,7.0,30.65,South,188,0.0,0.0,58,-99.99,,,-99.99,,2013-01-19 02:33:00,
2013-01-18 21:43:00,19.0,7.0,30.65,South,188,0.0,0.0,58,-99.99,,,-99.99,,2013-01-19 02:43:00,
2013-01-18 21:53:00,19.0,6.0,30.65,South,188,0.0,0.0,57,-99.99,,,-99.99,,2013-01-19 02:53:00,
2013-01-18 22:03:00,19.0,6.0,30.63,South,188,0.0,0.0,56,-99.99,,,-99.99,,2013-01-19 03:03:00,
2013-01-18 22:12:00,19.0,6.0,30.63,South,188,0.0,0.0,56,-99.99,,,-99.99,,2013-01-19 03:12:00,
2013-01-18 22:23:00,19.0,7.0,30.63,SSE,155,0.0,1.0,58,-99.99,,,-99.99,,2013-01-19 03:23:00,
2013-01-18 22:33:00,20.0,9.0,30.62,WNW,283,0.0,1.0,61,-99.99,,,-99.99,,2013-01-19 03:33:00,
2013-01-18 22:43:00,20.0,9.0,30.62,WNW,283,0.0,1.0,61,-99.99,,,-99.99,,2013-01-19 03:43:00,
2013-01-18 22:53:00,21.0,9.0,30.62,West,259,1.0,3.0,60,-99.99,,,-99.99,,2013-01-19 03:53:00,
2013-01-18 23:02:00,22.0,11.0,30.62,West,274,1.0,6.0,61,-99.99,,,-99.99,,2013-01-19 04:02:00,
2013-01-18 23:12:00,22.0,11.0,30.62,West,274,1.0,6.0,61,-99.99,,,-99.99,,2013-01-19 04:12:00,
2013-01-18 23:22:00,23.0,11.0,30.62,West,278,1.0,3.0,60,-99.99,,,-99.99,,2013-01-19 04:22:00,
2013-01-18 23:33:00,23.0,12.0,30.62,West,271,0.0,3.0,61,-99.99,,,-99.99,,2013-01-19 04:33:00,
2013-01-18 23:42:00,23.0,12.0,30.62,West,271,0.0,3.0,61,-99.99,,,-99.99,,2013-01-19 04:42:00,
2013-01-18 23:53:00,23.0,12.0,30.62,WNW,288,0.0,2.0,61,-99.99,,,-99.99,,2013-01-19 04:53:00,